Time;durP1;ratioP1;P1;durP2;ratioP2;P2;SDS_P1;SDS_P2;PMS_P1;PMS_P2;Temp;Humidity;BMP_temperature;BMP_pressure;BME280_temperature;BME280_humidity;BME280_pressure;Samples;Min_cycle;Max_cycle;Signal;HPM_P1;HPM_P2
2023/07/04 00:01:19;;;;;;;0.10;0.10;;;12.20;99.90;;;;;;5092191;28;20043;-66
2023/07/04 00:03:50;;;;;;;0.85;0.20;;;12.20;99.90;;;;;;5091289;28;20040;-66
2023/07/04 00:06:17;;;;;;;1.88;0.43;;;12.20;99.90;;;;;;5063079;28;20158;-66
2023/07/04 00:08:43;;;;;;;0.60;0.40;;;12.20;99.90;;;;;;5054854;28;20493;-66
2023/07/04 00:11:11;;;;;;;0.50;0.47;;;12.20;99.90;;;;;;5071017;28;20047;-66
2023/07/04 00:13:38;;;;;;;2.88;0.40;;;12.20;99.90;;;;;;5071416;28;20040;-66
2023/07/04 00:16:10;;;;;;;0.93;0.45;;;12.20;99.90;;;;;;5054754;28;20040;-66
2023/07/04 00:18:36;;;;;;;0.60;0.38;;;12.20;99.90;;;;;;5071004;28;20032;-66
2023/07/04 00:21:04;;;;;;;0.45;0.20;;;12.10;99.90;;;;;;5072607;28;20036;-66
2023/07/04 00:23:36;;;;;;;0.88;0.45;;;12.10;99.90;;;;;;5071347;28;20115;-66
2023/07/04 00:26:06;;;;;;;0.95;0.40;;;12.10;99.90;;;;;;5070887;28;20635;-66
2023/07/04 00:28:33;;;;;;;0.82;0.32;;;12.00;99.90;;;;;;5071413;28;20449;-66
2023/07/04 00:31:01;;;;;;;0.80;0.30;;;12.00;99.90;;;;;;5071419;28;20350;-66
2023/07/04 00:33:27;;;;;;;0.82;0.30;;;11.90;99.90;;;;;;5070554;28;20127;-66
2023/07/04 00:36:17;;;;;;;1.33;0.45;;;11.90;99.90;;;;;;5054501;28;20128;-67
2023/07/04 00:38:45;;;;;;;2.92;0.55;;;11.80;99.90;;;;;;5070486;28;20041;-66
2023/07/04 00:41:13;;;;;;;0.68;0.43;;;11.80;99.90;;;;;;5071329;28;20032;-66
2023/07/04 00:44:01;;;;;;;0.57;0.45;;;11.80;99.90;;;;;;5071009;28;20045;-66
2023/07/04 00:47:06;;;;;;;0.57;0.22;;;11.80;99.90;;;;;;5071336;28;20036;-66
2023/07/04 00:49:42;;;;;;;1.45;0.90;;;11.90;99.90;;;;;;5069515;28;20401;-67
2023/07/04 00:52:32;;;;;;;0.30;0.20;;;12.00;99.90;;;;;;5070715;28;20044;-66
2023/07/04 00:55:01;;;;;;;0.32;0.20;;;12.00;99.90;;;;;;5053900;28;20056;-66
2023/07/04 00:57:39;;;;;;;0.73;0.50;;;12.00;99.90;;;;;;5070432;28;20055;-66
2023/07/04 01:00:19;;;;;;;2.22;0.75;;;12.10;99.90;;;;;;5054792;28;20058;-66
2023/07/04 01:02:49;;;;;;;2.72;0.50;;;12.10;99.90;;;;;;5070738;28;20060;-66
2023/07/04 01:05:26;;;;;;;1.52;0.65;;;12.10;99.90;;;;;;5053877;28;20127;-66
2023/07/04 01:08:16;;;;;;;1.88;0.40;;;12.10;99.90;;;;;;5053055;28;20040;-66
2023/07/04 01:10:44;;;;;;;3.45;0.68;;;12.10;99.90;;;;;;5070420;28;20041;-66
2023/07/04 01:13:28;;;;;;;2.30;0.70;;;12.10;99.90;;;;;;5070573;28;20396;-66
2023/07/04 01:15:55;;;;;;;0.20;0.20;;;12.10;99.90;;;;;;5071492;28;20037;-66
2023/07/04 01:18:23;;;;;;;1.10;0.50;;;12.10;99.90;;;;;;5070293;28;20044;-66
2023/07/04 01:20:50;;;;;;;0.93;0.63;;;12.10;99.90;;;;;;5052998;28;20041;-66
2023/07/04 01:23:54;;;;;;;0.77;0.28;;;12.20;99.90;;;;;;5070076;28;20542;-67
2023/07/04 01:26:38;;;;;;;0.55;0.38;;;12.20;99.90;;;;;;5069304;28;20053;-66
2023/07/04 01:29:07;;;;;;;0.57;0.30;;;12.30;99.90;;;;;;5069533;28;20056;-66
2023/07/04 01:31:35;;;;;;;0.85;0.47;;;12.40;99.90;;;;;;5053378;28;20041;-66
2023/07/04 01:34:06;;;;;;;0.30;0.20;;;12.40;99.90;;;;;;5071264;28;20050;-66
2023/07/04 01:36:37;;;;;;;1.10;0.50;;;12.40;99.90;;;;;;5069033;28;20040;-66
2023/07/04 01:39:05;;;;;;;2.83;0.50;;;12.50;99.90;;;;;;5069827;28;20059;-66
2023/07/04 01:41:32;;;;;;;1.63;0.55;;;12.50;99.90;;;;;;5070525;28;20040;-66
2023/07/04 01:44:06;;;;;;;2.60;0.63;;;12.50;99.90;;;;;;5070958;28;20035;-66
2023/07/04 01:46:34;;;;;;;1.27;0.52;;;12.50;99.90;;;;;;5051111;28;20041;-67
2023/07/04 01:49:00;;;;;;;0.25;0.22;;;12.50;99.90;;;;;;5059347;28;20098;-67
2023/07/04 01:51:31;;;;;;;0.63;0.40;;;12.50;99.90;;;;;;5069844;28;20435;-67
2023/07/04 01:53:58;;;;;;;0.47;0.40;;;12.40;99.90;;;;;;5070643;28;20048;-67
2023/07/04 01:56:24;;;;;;;2.05;0.65;;;12.40;99.90;;;;;;5068761;28;20048;-66
2023/07/04 01:58:50;;;;;;;4.43;0.57;;;12.30;99.90;;;;;;5072137;28;20718;-67
2023/07/04 02:01:16;;;;;;;0.22;0.22;;;12.30;99.90;;;;;;5089239;28;20048;-66
2023/07/04 02:03:43;;;;;;;4.35;1.08;;;12.40;99.90;;;;;;5084610;28;20041;-67
2023/07/04 02:06:09;;;;;;;0.63;0.30;;;12.30;99.90;;;;;;5052623;28;20097;-66
2023/07/04 02:08:35;;;;;;;0.65;0.40;;;12.30;99.90;;;;;;5070536;28;20102;-66
2023/07/04 02:11:02;;;;;;;0.40;0.30;;;12.20;99.90;;;;;;5070208;28;20119;-66
2023/07/04 02:13:28;;;;;;;0.68;0.40;;;12.20;99.90;;;;;;5052792;28;20044;-66
2023/07/04 02:15:54;;;;;;;3.72;0.40;;;12.20;99.90;;;;;;5070413;28;20370;-66
2023/07/04 02:18:21;;;;;;;0.40;0.30;;;12.20;99.90;;;;;;5069963;28;20127;-67
2023/07/04 02:20:46;;;;;;;0.50;0.40;;;12.20;99.90;;;;;;5069272;28;20040;-66
2023/07/04 02:23:12;;;;;;;0.20;0.20;;;12.20;99.90;;;;;;5069337;28;20384;-66
2023/07/04 02:25:42;;;;;;;1.92;0.77;;;12.20;99.90;;;;;;5069998;28;20123;-67
2023/07/04 02:28:08;;;;;;;1.30;0.40;;;12.20;99.90;;;;;;5069244;28;20399;-66
2023/07/04 02:30:34;;;;;;;5.78;0.57;;;12.20;99.90;;;;;;5069743;28;20056;-67
2023/07/04 02:33:00;;;;;;;0.70;0.40;;;12.20;99.90;;;;;;5070349;28;20079;-67
2023/07/04 02:35:28;;;;;;;1.38;0.45;;;12.10;99.90;;;;;;5070226;28;20036;-67
2023/07/04 02:37:54;;;;;;;0.20;0.20;;;12.10;99.90;;;;;;5068296;28;20045;-67
2023/07/04 02:40:20;;;;;;;0.60;0.32;;;12.10;99.90;;;;;;5070167;28;20040;-67
2023/07/04 02:42:46;;;;;;;0.90;0.30;;;12.10;99.90;;;;;;5070102;28;20377;-67
2023/07/04 02:45:12;;;;;;;3.33;0.43;;;12.10;99.90;;;;;;5069577;28;20044;-67
2023/07/04 02:47:38;;;;;;;0.63;0.40;;;12.10;99.90;;;;;;5070014;28;20047;-67
2023/07/04 02:50:04;;;;;;;0.30;0.20;;;12.10;99.90;;;;;;5070152;28;20115;-67
2023/07/04 02:52:30;;;;;;;2.78;0.32;;;12.10;99.90;;;;;;5068083;28;20119;-67
2023/07/04 02:54:56;;;;;;;3.88;0.70;;;12.00;99.90;;;;;;5068573;28;20053;-66
2023/07/04 02:57:22;;;;;;;0.65;0.40;;;12.00;99.90;;;;;;5068755;28;20044;-66
2023/07/04 02:59:48;;;;;;;4.18;0.30;;;12.00;99.90;;;;;;5080004;28;20028;-67
2023/07/04 03:02:14;;;;;;;0.60;0.40;;;11.90;99.90;;;;;;5072351;28;20040;-67
2023/07/04 03:04:40;;;;;;;0.43;0.35;;;11.90;99.90;;;;;;5090071;28;20607;-67
2023/07/04 03:07:07;;;;;;;0.20;0.20;;;11.90;99.90;;;;;;5088347;28;20487;-67
2023/07/04 03:09:33;;;;;;;1.88;0.35;;;11.90;99.90;;;;;;5080020;28;20044;-67
2023/07/04 03:11:59;;;;;;;0.60;0.40;;;11.80;99.90;;;;;;5070140;28;20094;-67
2023/07/04 03:14:25;;;;;;;1.85;0.40;;;11.80;99.90;;;;;;5071976;28;20607;-67
2023/07/04 03:16:51;;;;;;;0.47;0.47;;;11.80;99.90;;;;;;5072533;28;20504;-67
2023/07/04 03:19:17;;;;;;;0.25;0.13;;;11.70;99.90;;;;;;5072434;28;20565;-67
2023/07/04 03:21:43;;;;;;;1.77;0.47;;;11.70;99.90;;;;;;5071780;28;20123;-66
2023/07/04 03:24:09;;;;;;;0.75;0.40;;;11.70;99.90;;;;;;5073735;28;20071;-67
2023/07/04 03:26:35;;;;;;;0.13;0.13;;;11.70;99.90;;;;;;5055068;28;20083;-67
2023/07/04 03:29:06;;;;;;;0.52;0.30;;;11.60;99.90;;;;;;5055513;28;20044;-67
2023/07/04 03:31:32;;;;;;;1.10;0.50;;;11.70;99.90;;;;;;5072161;28;20124;-67
2023/07/04 03:33:58;;;;;;;1.17;0.55;;;11.70;99.90;;;;;;5071703;28;20127;-67
2023/07/04 03:36:23;;;;;;;0.95;0.50;;;11.70;99.90;;;;;;5072155;28;20477;-67
2023/07/04 03:38:49;;;;;;;1.25;0.30;;;11.60;99.90;;;;;;5072073;28;20074;-67
2023/07/04 03:41:15;;;;;;;0.35;0.28;;;11.60;99.90;;;;;;5071663;28;20118;-67
2023/07/04 03:43:41;;;;;;;0.65;0.35;;;11.60;99.90;;;;;;5072215;28;20385;-67
2023/07/04 03:46:07;;;;;;;1.52;0.40;;;11.70;99.90;;;;;;5073257;28;20044;-67
2023/07/04 03:48:33;;;;;;;0.40;0.25;;;11.60;99.90;;;;;;5071321;28;20051;-67
2023/07/04 03:50:59;;;;;;;2.78;0.50;;;11.60;99.90;;;;;;5071911;28;20531;-67
2023/07/04 03:53:25;;;;;;;0.38;0.30;;;11.60;99.90;;;;;;5071595;28;20056;-67
2023/07/04 03:55:52;;;;;;;0.90;0.55;;;11.60;99.90;;;;;;5071253;28;20044;-67
2023/07/04 03:58:18;;;;;;;0.85;0.30;;;11.60;99.90;;;;;;5073110;28;20037;-67
2023/07/04 04:00:48;;;;;;;0.30;0.30;;;11.60;99.90;;;;;;5091091;28;20036;-66
2023/07/04 04:03:14;;;;;;;0.43;0.30;;;11.60;99.90;;;;;;5074652;28;20040;-67
2023/07/04 04:05:42;;;;;;;0.28;0.20;;;11.60;99.90;;;;;;5075078;28;20047;-67
2023/07/04 04:08:08;;;;;;;0.50;0.30;;;11.70;99.90;;;;;;5092137;28;20500;-67
2023/07/04 04:10:52;;;;;;;0.28;0.22;;;11.70;99.90;;;;;;5093224;28;20120;-67
2023/07/04 04:13:37;;;;;;;1.05;0.43;;;11.80;99.90;;;;;;5093113;28;20047;-67
2023/07/04 04:16:22;;;;;;;3.30;0.40;;;11.90;99.90;;;;;;5092525;28;20078;-66
2023/07/04 04:18:51;;;;;;;3.40;0.40;;;12.00;99.90;;;;;;5091799;28;20040;-67
2023/07/04 04:21:17;;;;;;;0.20;0.20;;;12.10;99.90;;;;;;5091527;28;20488;-66
2023/07/04 04:23:43;;;;;;;5.75;0.65;;;12.30;99.90;;;;;;5090633;28;20036;-67
2023/07/04 04:26:09;;;;;;;2.10;0.30;;;12.40;99.90;;;;;;5091533;28;20036;-67
2023/07/04 04:28:35;;;;;;;0.63;0.30;;;12.40;99.90;;;;;;5091428;28;20044;-66
2023/07/04 04:31:01;;;;;;;2.58;0.28;;;12.60;99.90;;;;;;5079730;28;20044;-67
2023/07/04 04:33:26;;;;;;;0.63;0.38;;;12.70;99.90;;;;;;5054328;28;20050;-67
2023/07/04 04:35:52;;;;;;;1.13;0.60;;;12.80;99.90;;;;;;5070966;28;20173;-67
2023/07/04 04:38:18;;;;;;;0.40;0.32;;;12.90;99.90;;;;;;5070589;28;20061;-67
2023/07/04 04:40:44;;;;;;;0.57;0.40;;;13.00;99.90;;;;;;5071256;28;20044;-67
2023/07/04 04:43:10;;;;;;;0.22;0.22;;;13.10;99.90;;;;;;5071009;28;20398;-66
2023/07/04 04:45:38;;;;;;;0.22;0.20;;;13.10;99.90;;;;;;5070256;28;20044;-66
2023/07/04 04:48:06;;;;;;;0.75;0.35;;;13.20;99.90;;;;;;5071226;28;20048;-67
2023/07/04 04:50:32;;;;;;;0.10;0.10;;;13.20;99.90;;;;;;5070147;28;20101;-67
2023/07/04 04:52:59;;;;;;;0.68;0.20;;;13.20;99.90;;;;;;5053936;28;20093;-66
2023/07/04 04:55:25;;;;;;;5.90;0.40;;;13.30;99.90;;;;;;5070867;28;20059;-66
2023/07/04 04:57:52;;;;;;;0.52;0.40;;;13.30;99.90;;;;;;5071601;28;20033;-66
2023/07/04 05:00:19;;;;;;;1.65;0.30;;;13.40;99.90;;;;;;5085339;28;20032;-66
2023/07/04 05:02:45;;;;;;;0.50;0.40;;;13.40;99.90;;;;;;5091054;28;20040;-66
2023/07/04 05:05:12;;;;;;;0.32;0.30;;;13.40;99.90;;;;;;5073566;28;20059;-66
2023/07/04 05:07:38;;;;;;;0.95;0.45;;;13.50;99.90;;;;;;5090991;28;20036;-66
2023/07/04 05:10:05;;;;;;;0.22;0.20;;;13.50;99.90;;;;;;5073723;28;20051;-66
2023/07/04 05:12:32;;;;;;;2.28;0.38;;;13.60;99.90;;;;;;5090018;28;20055;-66
2023/07/04 05:14:58;;;;;;;1.52;0.40;;;13.60;99.90;;;;;;5091861;28;20477;-66
2023/07/04 05:17:24;;;;;;;0.10;0.10;;;13.70;99.90;;;;;;5090677;28;20101;-66
2023/07/04 05:19:51;;;;;;;1.60;0.50;;;13.70;99.90;;;;;;5090083;28;20036;-65
2023/07/04 05:22:18;;;;;;;0.65;0.22;;;13.80;99.90;;;;;;5090447;28;20071;-66
2023/07/04 05:24:44;;;;;;;0.28;0.25;;;13.80;99.90;;;;;;5079838;28;20052;-66
2023/07/04 05:27:10;;;;;;;0.65;0.40;;;13.90;99.90;;;;;;5069796;28;20047;-65
2023/07/04 05:29:36;;;;;;;0.45;0.20;;;14.00;99.90;;;;;;5069934;28;20070;-66
2023/07/04 05:32:02;;;;;;;0.85;0.43;;;14.00;99.90;;;;;;5071379;28;20079;-65
2023/07/04 05:34:28;;;;;;;0.20;0.20;;;14.00;99.90;;;;;;5068923;28;20048;-65
2023/07/04 05:36:54;;;;;;;4.90;0.43;;;14.10;99.90;;;;;;5069362;28;20109;-65
2023/07/04 05:39:20;;;;;;;0.22;0.22;;;14.20;99.90;;;;;;5069608;28;20123;-65
2023/07/04 05:41:46;;;;;;;3.08;0.22;;;14.30;99.90;;;;;;5069249;28;20098;-65
2023/07/04 05:44:12;;;;;;;0.43;0.30;;;14.30;99.90;;;;;;5069678;28;20040;-66
2023/07/04 05:46:38;;;;;;;1.23;0.20;;;14.40;99.90;;;;;;5070487;28;20041;-65
2023/07/04 05:49:05;;;;;;;0.25;0.20;;;14.40;99.90;;;;;;5070610;28;20097;-67
2023/07/04 05:51:31;;;;;;;1.02;0.30;;;14.50;99.90;;;;;;5071129;28;20105;-66
2023/07/04 05:53:57;;;;;;;1.75;0.50;;;14.60;99.90;;;;;;5068609;28;20053;-66
2023/07/04 05:56:26;;;;;;;1.55;0.40;;;14.70;99.90;;;;;;5070583;28;20052;-66
2023/07/04 05:58:55;;;;;;;0.70;0.43;;;14.70;99.90;;;;;;5072390;28;20048;-66
2023/07/04 06:01:20;;;;;;;0.77;0.30;;;14.80;99.90;;;;;;5089098;28;20036;-65
2023/07/04 06:03:47;;;;;;;3.63;0.45;;;14.90;99.90;;;;;;5089513;28;20043;-65
2023/07/04 06:06:27;;;;;;;1.65;0.45;;;15.00;99.90;;;;;;5089646;28;20051;-66
2023/07/04 06:08:55;;;;;;;1.27;0.30;;;15.10;99.90;;;;;;5089253;28;20155;-66
2023/07/04 06:11:24;;;;;;;0.60;0.40;;;15.20;99.90;;;;;;5090888;28;20046;-67
2023/07/04 06:13:50;;;;;;;0.45;0.30;;;15.20;99.90;;;;;;5089577;28;20047;-66
2023/07/04 06:16:16;;;;;;;1.35;0.25;;;15.30;99.90;;;;;;5088815;28;20052;-67
2023/07/04 06:18:43;;;;;;;1.55;0.60;;;15.30;99.90;;;;;;5057949;28;20091;-67
2023/07/04 06:21:14;;;;;;;0.40;0.30;;;15.40;99.90;;;;;;5055607;28;20403;-67
2023/07/04 06:23:41;;;;;;;0.75;0.50;;;15.40;99.90;;;;;;5068514;28;20040;-66
2023/07/04 06:26:09;;;;;;;1.23;0.93;;;15.40;99.90;;;;;;5067435;28;20041;-66
2023/07/04 06:28:36;;;;;;;0.65;0.43;;;15.50;99.90;;;;;;5068406;28;20135;-67
2023/07/04 06:31:06;;;;;;;0.45;0.28;;;15.60;99.90;;;;;;5069083;28;20044;-67
2023/07/04 06:33:32;;;;;;;0.52;0.43;;;15.70;99.90;;;;;;5070477;28;20080;-68
2023/07/04 06:35:59;;;;;;;0.30;0.20;;;15.70;99.90;;;;;;5068573;28;20048;-67
2023/07/04 06:38:26;;;;;;;1.13;0.40;;;15.70;99.90;;;;;;5068975;28;20086;-68
2023/07/04 06:41:00;;;;;;;3.33;1.25;;;15.70;99.90;;;;;;5070398;28;20094;-67
2023/07/04 06:43:29;;;;;;;4.85;0.52;;;15.80;99.90;;;;;;5068331;28;20037;-67
2023/07/04 06:45:55;;;;;;;0.20;0.20;;;16.00;99.90;;;;;;5069255;28;20409;-67
2023/07/04 06:48:23;;;;;;;0.68;0.50;;;16.20;99.90;;;;;;5070239;28;20036;-66
2023/07/04 06:51:03;;;;;;;0.43;0.20;;;16.40;99.90;;;;;;5068234;28;20045;-67
2023/07/04 06:53:29;;;;;;;;;;;16.50;99.90;;;;;;5068750;28;20109;-67
2023/07/04 06:56:13;;;;;;;1.15;0.57;;;16.50;99.90;;;;;;5050899;28;19920;-67
2023/07/04 06:58:41;;;;;;;2.88;0.57;;;16.50;99.90;;;;;;5069298;28;20036;-67
2023/07/04 07:01:09;;;;;;;2.88;0.85;;;16.40;99.90;;;;;;5070031;28;20028;-66
2023/07/04 07:03:34;;;;;;;1.75;0.28;;;16.40;99.90;;;;;;5068056;28;20174;-67
2023/07/04 07:06:02;;;;;;;1.20;0.43;;;16.30;99.90;;;;;;5068942;28;20127;-66
2023/07/04 07:08:28;;;;;;;2.63;0.82;;;16.20;99.90;;;;;;5070003;28;20060;-68
2023/07/04 07:10:57;;;;;;;1.65;0.50;;;16.20;99.90;;;;;;5068290;28;20044;-67
2023/07/04 07:13:23;;;;;;;0.93;0.43;;;16.20;99.90;;;;;;5070173;28;20040;-67
2023/07/04 07:15:49;;;;;;;1.02;0.40;;;16.20;99.90;;;;;;5068570;28;20051;-67
2023/07/04 07:18:16;;;;;;;0.75;0.20;;;16.20;99.90;;;;;;5067621;28;20035;-67
2023/07/04 07:20:48;;;;;;;0.38;0.20;;;16.20;99.90;;;;;;5068840;28;20106;-67
2023/07/04 07:23:19;;;;;;;0.93;0.30;;;16.20;99.90;;;;;;5033782;28;20712;-68
2023/07/04 07:25:58;;;;;;;2.95;0.40;;;16.30;99.90;;;;;;5051226;28;20037;-67
2023/07/04 07:28:49;;;;;;;1.85;0.30;;;16.50;99.90;;;;;;5068088;28;20044;-67
2023/07/04 07:31:26;;;;;;;0.80;0.30;;;16.70;99.90;;;;;;5068360;28;20190;-67
2023/07/04 07:33:54;;;;;;;1.50;0.70;;;16.80;99.90;;;;;;5067550;28;20041;-66
2023/07/04 07:36:32;;;;;;;2.85;0.40;;;17.10;99.90;;;;;;5067118;28;20045;-66
2023/07/04 07:39:04;;;;;;;0.98;0.38;;;17.30;99.90;;;;;;5067171;28;20039;-66
2023/07/04 07:41:34;;;;;;;1.30;0.57;;;17.40;99.90;;;;;;5050355;28;20055;-65
2023/07/04 07:44:06;;;;;;;1.33;0.40;;;17.40;99.90;;;;;;5067759;28;20230;-66
2023/07/04 07:46:39;;;;;;;2.00;0.70;;;17.30;99.90;;;;;;5068272;28;20393;-65
2023/07/04 07:49:07;;;;;;;0.85;0.38;;;17.20;99.90;;;;;;5050553;28;20385;-65
2023/07/04 07:51:35;;;;;;;1.58;0.35;;;17.10;99.90;;;;;;5067294;28;20048;-65
2023/07/04 07:54:08;;;;;;;0.65;0.25;;;17.00;99.90;;;;;;5066271;28;20067;-65
2023/07/04 07:56:42;;;;;;;1.25;0.60;;;17.00;99.90;;;;;;5068529;28;20584;-65
2023/07/04 07:59:21;;;;;;;0.52;0.40;;;17.00;99.90;;;;;;5058898;28;20044;-65
2023/07/04 08:01:48;;;;;;;2.13;0.52;;;17.00;99.90;;;;;;5090707;28;20051;-65
2023/07/04 08:04:21;;;;;;;2.35;0.32;;;17.00;99.90;;;;;;5090032;28;20052;-65
2023/07/04 08:06:47;;;;;;;0.30;0.30;;;16.90;99.90;;;;;;5089832;28;20040;-65
2023/07/04 08:09:18;;;;;;;4.38;0.90;;;17.00;99.90;;;;;;5089487;28;20079;-65
2023/07/04 08:11:47;;;;;;;2.95;0.50;;;17.00;99.90;;;;;;5092231;28;20546;-66
2023/07/04 08:14:19;;;;;;;1.42;0.38;;;17.10;99.90;;;;;;5091092;28;20108;-65
2023/07/04 08:16:51;;;;;;;0.40;0.30;;;17.10;99.90;;;;;;5092509;28;20105;-65
2023/07/04 08:19:20;;;;;;;3.65;0.55;;;17.20;99.90;;;;;;5075760;28;20089;-66
2023/07/04 08:21:54;;;;;;;0.65;0.30;;;17.20;99.90;;;;;;5070620;28;20036;-66
2023/07/04 08:24:27;;;;;;;2.10;0.40;;;17.20;99.90;;;;;;5054919;28;20115;-65
2023/07/04 08:26:58;;;;;;;1.85;0.40;;;17.30;99.90;;;;;;5069775;28;20049;-64
2023/07/04 08:29:30;;;;;;;2.58;1.00;;;17.30;99.90;;;;;;5054634;28;20106;-65
2023/07/04 08:31:56;;;;;;;0.90;0.55;;;17.30;99.90;;;;;;5071111;28;20400;-64
2023/07/04 08:34:22;;;;;;;1.42;0.50;;;17.20;99.90;;;;;;5071224;28;20040;-65
2023/07/04 08:36:48;;;;;;;2.60;0.40;;;17.20;99.90;;;;;;5070444;28;20076;-65
2023/07/04 08:39:14;;;;;;;3.28;0.68;;;17.20;99.90;;;;;;5071142;28;20044;-66
2023/07/04 08:41:57;;;;;;;6.20;0.77;;;17.20;99.90;;;;;;5070385;28;20089;-66
2023/07/04 08:44:31;;;;;;;1.15;0.70;;;17.20;99.90;;;;;;5071003;28;20119;-65
2023/07/04 08:46:58;;;;;;;1.17;0.30;;;17.30;99.90;;;;;;5071891;28;20044;-65
2023/07/04 08:49:38;;;;;;;2.53;1.00;;;17.30;99.90;;;;;;5053322;28;20040;-65
2023/07/04 08:52:28;;;;;;;1.73;0.70;;;17.30;99.90;;;;;;5070715;28;20052;-66
2023/07/04 08:54:54;;;;;;;1.83;0.50;;;17.30;99.90;;;;;;5070511;28;20536;-64
2023/07/04 08:57:26;;;;;;;1.05;0.57;;;17.40;99.90;;;;;;5069649;28;20052;-65
2023/07/04 09:00:01;;;;;;;3.63;0.55;;;17.40;99.90;;;;;;5080583;28;20400;-65
2023/07/04 09:02:58;;;;;;;2.25;0.40;;;17.60;99.90;;;;;;5090594;28;20464;-66
2023/07/04 09:05:49;;;;;;;0.98;0.73;;;17.90;99.90;;;;;;5089933;28;20091;-66
2023/07/04 09:08:56;;;;;;;0.60;0.50;;;18.30;99.90;;;;;;5088392;28;20114;-65
2023/07/04 09:11:23;;;;;;;5.88;0.50;;;18.80;99.90;;;;;;5071322;28;20123;-66
2023/07/04 09:14:07;;;;;;;3.07;1.07;;;19.10;99.90;;;;;;5085633;28;20056;-65
2023/07/04 09:16:42;;;;;;;0.85;0.47;;;19.30;99.90;;;;;;5067278;28;20036;-66
2023/07/04 09:19:16;;;;;;;3.60;0.77;;;19.50;99.90;;;;;;5066822;28;20033;-65
2023/07/04 09:21:42;;;;;;;0.82;0.50;;;19.50;99.90;;;;;;5071234;28;20037;-64
2023/07/04 09:24:08;;;;;;;3.20;1.17;;;19.50;99.90;;;;;;5070982;28;20033;-66
2023/07/04 09:26:41;;;;;;;1.10;0.40;;;19.50;99.90;;;;;;5071220;28;20127;-67
2023/07/04 09:29:07;;;;;;;3.10;0.82;;;19.70;99.90;;;;;;5070301;28;20429;-66
2023/07/04 09:31:37;;;;;;;2.90;0.50;;;20.10;99.90;;;;;;5070724;28;20040;-66
2023/07/04 09:34:09;;;;;;;1.08;0.40;;;20.50;99.90;;;;;;5069941;28;20055;-67
2023/07/04 09:36:39;;;;;;;2.10;0.75;;;20.60;99.90;;;;;;5070029;28;20037;-66
2023/07/04 09:39:05;;;;;;;3.55;0.70;;;20.60;99.90;;;;;;5052678;28;20504;-67
2023/07/04 09:41:34;;;;;;;2.28;0.55;;;20.70;99.90;;;;;;5053210;28;20040;-66
2023/07/04 09:44:19;;;;;;;0.73;0.52;;;20.90;99.90;;;;;;5069959;28;20062;-66
2023/07/04 09:46:56;;;;;;;2.22;0.85;;;20.80;99.90;;;;;;5068074;28;20040;-67
2023/07/04 09:49:36;;;;;;;1.92;0.65;;;20.50;99.90;;;;;;5052313;28;20048;-66
2023/07/04 09:52:12;;;;;;;3.00;0.80;;;20.30;99.90;;;;;;5068247;28;20497;-66
2023/07/04 09:54:42;;;;;;;0.80;0.60;;;19.90;99.90;;;;;;5069648;28;20052;-66
2023/07/04 09:57:26;;;;;;;1.13;0.50;;;19.50;99.90;;;;;;5068345;28;20048;-66
2023/07/04 09:59:53;;;;;;;0.70;0.40;;;19.20;99.90;;;;;;5080535;28;20032;-66
2023/07/04 10:02:34;;;;;;;3.67;0.95;;;19.10;99.90;;;;;;5088931;28;20036;-66
2023/07/04 10:05:00;;;;;;;1.70;0.82;;;19.50;99.90;;;;;;5088756;28;20044;-66
2023/07/04 10:07:26;;;;;;;1.60;0.60;;;19.80;99.90;;;;;;5089205;28;20040;-66
2023/07/04 10:10:07;;;;;;;1.58;0.57;;;20.10;99.90;;;;;;5054789;28;20053;-66
2023/07/04 10:12:45;;;;;;;2.30;0.80;;;20.50;99.90;;;;;;5063035;28;20413;-67
2023/07/04 10:15:23;;;;;;;1.20;0.40;;;20.50;99.90;;;;;;5068530;28;20040;-66
2023/07/04 10:17:50;;;;;;;1.77;0.32;;;20.40;99.90;;;;;;5068434;28;20393;-66
2023/07/04 10:20:16;;;;;;;1.33;0.55;;;20.20;99.80;;;;;;5067651;28;20854;-66
2023/07/04 10:22:52;;;;;;;2.58;0.30;;;20.20;99.90;;;;;;5069034;28;20036;-67
2023/07/04 10:25:23;;;;;;;1.92;0.85;;;20.20;99.90;;;;;;5068138;28;20040;-66
2023/07/04 10:28:06;;;;;;;4.78;0.82;;;20.30;99.90;;;;;;5067667;28;20123;-66
2023/07/04 10:30:36;;;;;;;2.50;0.65;;;20.40;99.90;;;;;;5051330;28;20047;-66
2023/07/04 10:33:07;;;;;;;0.77;0.32;;;20.50;99.90;;;;;;5068226;28;20036;-66
2023/07/04 10:35:37;;;;;;;2.80;0.70;;;20.50;99.90;;;;;;5067459;28;20052;-64
2023/07/04 10:38:35;;;;;;;1.95;0.40;;;20.50;99.90;;;;;;5068087;28;20120;-66
2023/07/04 10:41:33;;;;;;;3.50;0.60;;;20.50;99.40;;;;;;5067763;28;20041;-66
2023/07/04 10:44:03;;;;;;;4.68;0.75;;;20.40;99.90;;;;;;5066647;28;20049;-66
2023/07/04 10:46:39;;;;;;;3.45;0.68;;;20.70;99.90;;;;;;5068148;28;20401;-65
2023/07/04 10:49:08;;;;;;;3.15;0.50;;;21.10;99.90;;;;;;5068720;28;20546;-66
2023/07/04 10:51:37;;;;;;;;;;;21.30;98.10;;;;;;5069747;28;20074;-66
2023/07/04 10:54:05;;;;;;;0.85;0.40;;;21.20;96.70;;;;;;5069033;28;19963;-66
2023/07/04 10:56:34;;;;;;;4.03;0.60;;;21.20;98.50;;;;;;5067220;28;20056;-67
2023/07/04 10:59:14;;;;;;;0.73;0.32;;;21.00;98.40;;;;;;5073098;28;20097;-66
2023/07/04 11:01:48;;;;;;;3.53;0.65;;;20.50;97.90;;;;;;5063601;28;20420;-66
2023/07/04 11:04:28;;;;;;;2.38;0.30;;;20.20;97.90;;;;;;5065032;28;20049;-66
2023/07/04 11:07:23;;;;;;;2.58;0.60;;;20.20;98.40;;;;;;5068522;28;20492;-66
2023/07/04 11:09:57;;;;;;;4.10;0.80;;;20.10;98.20;;;;;;5066446;28;20060;-66
2023/07/04 11:12:29;;;;;;;2.03;0.50;;;19.90;98.60;;;;;;5049931;28;20060;-66
2023/07/04 11:15:09;;;;;;;2.58;0.50;;;19.60;98.50;;;;;;5047153;28;20106;-66
2023/07/04 11:17:36;;;;;;;1.30;0.45;;;19.50;99.00;;;;;;5046755;28;20045;-66
2023/07/04 11:20:12;;;;;;;0.80;0.57;;;19.70;99.80;;;;;;5049019;28;20075;-66
2023/07/04 11:22:51;;;;;;;3.13;0.50;;;20.00;99.70;;;;;;5048211;28;20106;-66
2023/07/04 11:25:34;;;;;;;2.42;0.45;;;20.10;98.20;;;;;;5048820;28;20056;-66
2023/07/04 11:28:33;;;;;;;6.68;0.88;;;20.10;98.70;;;;;;5048854;28;20048;-66
2023/07/04 11:31:08;;;;;;;0.40;0.30;;;20.30;98.70;;;;;;5048033;28;20072;-66
2023/07/04 11:33:49;;;;;;;2.42;1.05;;;20.60;98.50;;;;;;5052141;28;20446;-65
2023/07/04 11:36:36;;;;;;;2.78;0.57;;;20.60;97.30;;;;;;5072243;28;20362;-66
2023/07/04 11:39:06;;;;;;;3.38;0.63;;;20.60;98.10;;;;;;5072221;28;20037;-66
2023/07/04 11:41:40;;;;;;;0.93;0.50;;;20.70;97.50;;;;;;5072230;28;20041;-66
2023/07/04 11:44:23;;;;;;;4.20;0.43;;;20.40;96.70;;;;;;5072812;28;20090;-66
2023/07/04 11:47:09;;;;;;;2.38;0.70;;;20.10;97.10;;;;;;5072080;28;20481;-65
2023/07/04 11:49:35;;;;;;;1.77;0.20;;;19.80;96.80;;;;;;5055523;28;20044;-66
2023/07/04 11:52:19;;;;;;;0.32;0.28;;;19.80;98.20;;;;;;5071539;28;20097;-66
2023/07/04 11:54:54;;;;;;;5.68;1.13;;;20.10;98.00;;;;;;5072951;28;20163;-65
2023/07/04 11:57:21;;;;;;;1.17;0.45;;;20.30;97.70;;;;;;5054959;28;20045;-66
2023/07/04 11:59:47;;;;;;;3.75;0.60;;;20.10;96.70;;;;;;5081683;28;20036;-66
2023/07/04 12:02:29;;;;;;;2.05;0.55;;;20.00;97.40;;;;;;5093255;28;20036;-65
2023/07/04 12:04:55;;;;;;;1.15;0.60;;;20.30;97.60;;;;;;5071579;28;20040;-66
2023/07/04 12:07:37;;;;;;;2.15;0.60;;;20.40;97.20;;;;;;5070832;28;20048;-66
2023/07/04 12:10:17;;;;;;;1.20;0.30;;;20.50;97.50;;;;;;5071925;28;20451;-66
2023/07/04 12:12:44;;;;;;;1.05;0.35;;;20.90;97.60;;;;;;5072568;28;20118;-67
2023/07/04 12:15:25;;;;;;;3.13;0.55;;;21.20;97.60;;;;;;5071644;28;20229;-66
2023/07/04 12:17:54;;;;;;;0.65;0.45;;;21.30;97.00;;;;;;5071742;28;20135;-66
2023/07/04 12:20:21;;;;;;;2.25;0.95;;;21.40;97.10;;;;;;5071208;28;20442;-66
2023/07/04 12:22:58;;;;;;;2.17;0.57;;;21.50;96.70;;;;;;5071366;28;20079;-67
2023/07/04 12:25:34;;;;;;;2.03;0.40;;;21.40;95.60;;;;;;5071434;28;20049;-67
2023/07/04 12:28:03;;;;;;;2.55;0.47;;;21.20;95.50;;;;;;5072688;28;20090;-68
2023/07/04 12:30:30;;;;;;;3.17;0.57;;;21.00;95.40;;;;;;5071460;28;20040;-66
2023/07/04 12:32:56;;;;;;;0.75;0.47;;;21.00;95.50;;;;;;5070871;28;20047;-67
2023/07/04 12:35:35;;;;;;;1.90;0.55;;;21.10;95.30;;;;;;5071342;28;20041;-66
2023/07/04 12:38:02;;;;;;;3.10;0.47;;;21.00;94.40;;;;;;5071233;28;20040;-66
2023/07/04 12:40:31;;;;;;;0.82;0.50;;;20.80;94.60;;;;;;5071841;28;20135;-65
2023/07/04 12:43:03;;;;;;;2.42;0.65;;;20.80;95.00;;;;;;5054330;28;20105;-66
2023/07/04 12:45:29;;;;;;;1.08;0.50;;;20.80;94.80;;;;;;5070816;28;20036;-65
2023/07/04 12:48:04;;;;;;;0.68;0.40;;;20.60;94.30;;;;;;5070250;28;20079;-65
2023/07/04 12:50:30;;;;;;;5.20;0.77;;;20.50;94.00;;;;;;5071078;28;20072;-65
2023/07/04 12:52:57;;;;;;;3.17;0.70;;;20.40;94.40;;;;;;5054118;28;20078;-65
2023/07/04 12:55:30;;;;;;;2.00;0.55;;;20.30;94.50;;;;;;5053715;28;20044;-65
2023/07/04 12:57:57;;;;;;;2.20;0.90;;;20.10;94.40;;;;;;5071670;28;20053;-64
2023/07/04 13:00:29;;;;;;;2.17;0.40;;;19.90;94.70;;;;;;5070694;28;20111;-64
2023/07/04 13:02:59;;;;;;;0.98;0.30;;;19.80;94.70;;;;;;5069698;28;20071;-66
2023/07/04 13:05:31;;;;;;;2.25;0.50;;;19.70;94.60;;;;;;5069810;28;20032;-66
2023/07/04 13:07:57;;;;;;;3.13;0.50;;;19.60;95.00;;;;;;5070149;28;20056;-65